sensor_id;sensor_type;location;lat;lon;timestamp;pressure;altitude;pressure_sealevel;temperature;humidity
64076;BME280;50327;51.328;12.324;2022-07-29T00:00:57;53118.28;;;-144.47;40.31
64076;BME280;50327;51.328;12.324;2022-07-29T00:03:22;53120.25;;;-144.47;40.39
64076;BME280;50327;51.328;12.324;2022-07-29T00:05:48;53104.38;;;-144.47;40.42
64076;BME280;50327;51.328;12.324;2022-07-29T00:08:13;53102.38;;;-144.47;40.40
64076;BME280;50327;51.328;12.324;2022-07-29T00:10:41;53110.31;;;-144.47;40.46
64076;BME280;50327;51.328;12.324;2022-07-29T00:13:06;53118.28;;;-144.47;40.41
64076;BME280;50327;51.328;12.324;2022-07-29T00:15:32;53094.44;;;-144.47;40.55
64076;BME280;50327;51.328;12.324;2022-07-29T00:17:57;53132.19;;;-144.47;40.48
64076;BME280;50327;51.328;12.324;2022-07-29T00:20:23;53106.34;;;-144.47;40.65
64076;BME280;50327;51.328;12.324;2022-07-29T00:22:48;53116.28;;;-144.47;40.69
64076;BME280;50327;51.328;12.324;2022-07-29T00:25:13;53090.47;;;-144.47;40.69
64076;BME280;50327;51.328;12.324;2022-07-29T00:27:39;53128.22;;;-144.47;40.73
64076;BME280;50327;51.328;12.324;2022-07-29T00:30:05;53118.28;;;-144.47;40.70
64076;BME280;50327;51.328;12.324;2022-07-29T00:32:31;53122.25;;;-144.47;40.71
64076;BME280;50327;51.328;12.324;2022-07-29T00:34:57;53126.22;;;-144.47;40.75
64076;BME280;50327;51.328;12.324;2022-07-29T00:37:41;53146.09;;;-144.47;40.84
64076;BME280;50327;51.328;12.324;2022-07-29T00:40:07;53080.53;;;-144.47;40.83
64076;BME280;50327;51.328;12.324;2022-07-29T00:42:52;53064.66;;;-144.47;40.85
64076;BME280;50327;51.328;12.324;2022-07-29T00:45:18;53124.22;;;-144.47;40.98
64076;BME280;50327;51.328;12.324;2022-07-29T00:47:44;53120.25;;;-144.47;40.97
64076;BME280;50327;51.328;12.324;2022-07-29T00:50:11;53100.41;;;-144.47;41.01
64076;BME280;50327;51.328;12.324;2022-07-29T00:52:38;53098.41;;;-144.47;41.13
64076;BME280;50327;51.328;12.324;2022-07-29T00:55:06;53128.22;;;-144.47;41.10
64076;BME280;50327;51.328;12.324;2022-07-29T00:57:34;53078.53;;;-144.47;41.24
64076;BME280;50327;51.328;12.324;2022-07-29T00:59:59;53136.16;;;-144.47;41.22
64076;BME280;50327;51.328;12.324;2022-07-29T01:02:25;53116.28;;;-144.47;41.18
64076;BME280;50327;51.328;12.324;2022-07-29T01:04:50;53112.31;;;-144.47;41.25
64076;BME280;50327;51.328;12.324;2022-07-29T01:07:17;53126.22;;;-144.47;41.25
64076;BME280;50327;51.328;12.324;2022-07-29T01:09:44;53094.44;;;-144.47;41.39
64076;BME280;50327;51.328;12.324;2022-07-29T01:12:11;53134.16;;;-144.47;41.40
64076;BME280;50327;51.328;12.324;2022-07-29T01:14:38;53102.38;;;-144.47;41.37
64076;BME280;50327;51.328;12.324;2022-07-29T01:17:26;53132.19;;;-144.47;41.37
64076;BME280;50327;51.328;12.324;2022-07-29T01:25:02;53110.31;;;-144.47;41.55
64076;BME280;50327;51.328;12.324;2022-07-29T01:27:51;53128.22;;;-144.47;41.51
64076;BME280;50327;51.328;12.324;2022-07-29T01:30:24;53096.41;;;-144.47;41.60
64076;BME280;50327;51.328;12.324;2022-07-29T01:32:55;53122.25;;;-144.47;41.65
64076;BME280;50327;51.328;12.324;2022-07-29T01:35:38;53142.09;;;-144.47;41.68
64076;BME280;50327;51.328;12.324;2022-07-29T01:38:13;53114.31;;;-144.47;41.82
64076;BME280;50327;51.328;12.324;2022-07-29T01:40:52;53088.47;;;-144.47;41.77
64076;BME280;50327;51.328;12.324;2022-07-29T01:43:21;53104.38;;;-144.47;41.84
64076;BME280;50327;51.328;12.324;2022-07-29T01:46:17;53130.19;;;-144.47;41.94
64076;BME280;50327;51.328;12.324;2022-07-29T01:49:10;53120.25;;;-144.47;41.84
64076;BME280;50327;51.328;12.324;2022-07-29T01:51:44;53082.53;;;-144.47;41.82
64076;BME280;50327;51.328;12.324;2022-07-29T01:56:56;53118.28;;;-144.47;41.98
64076;BME280;50327;51.328;12.324;2022-07-29T01:59:25;53090.47;;;-144.47;42.05
64076;BME280;50327;51.328;12.324;2022-07-29T02:01:52;53126.22;;;-144.47;41.97
64076;BME280;50327;51.328;12.324;2022-07-29T02:04:19;53108.34;;;-144.47;41.91
64076;BME280;50327;51.328;12.324;2022-07-29T02:06:49;53106.34;;;-144.47;42.07
64076;BME280;50327;51.328;12.324;2022-07-29T02:09:15;53144.09;;;-144.47;42.01
64076;BME280;50327;51.328;12.324;2022-07-29T02:11:48;53136.16;;;-144.47;42.11
64076;BME280;50327;51.328;12.324;2022-07-29T02:14:15;53106.34;;;-144.47;42.03
64076;BME280;50327;51.328;12.324;2022-07-29T02:16:43;53104.38;;;-144.47;42.05
64076;BME280;50327;51.328;12.324;2022-07-29T02:19:12;53098.41;;;-144.47;42.05
64076;BME280;50327;51.328;12.324;2022-07-29T02:21:38;53126.22;;;-144.47;42.08
64076;BME280;50327;51.328;12.324;2022-07-29T02:24:06;53122.25;;;-144.47;42.10
64076;BME280;50327;51.328;12.324;2022-07-29T02:26:33;53134.16;;;-144.47;42.15
64076;BME280;50327;51.328;12.324;2022-07-29T02:29:00;53116.28;;;-144.47;42.15
64076;BME280;50327;51.328;12.324;2022-07-29T02:31:30;53118.28;;;-144.47;42.07
64076;BME280;50327;51.328;12.324;2022-07-29T02:33:58;53114.31;;;-144.47;42.10
64076;BME280;50327;51.328;12.324;2022-07-29T02:36:24;53152.03;;;-144.47;42.17
64076;BME280;50327;51.328;12.324;2022-07-29T02:38:51;53122.25;;;-144.47;42.25
64076;BME280;50327;51.328;12.324;2022-07-29T02:41:30;53130.19;;;-144.47;42.15
64076;BME280;50327;51.328;12.324;2022-07-29T02:44:04;53108.34;;;-144.47;42.18
64076;BME280;50327;51.328;12.324;2022-07-29T02:46:34;53124.22;;;-144.47;42.08
64076;BME280;50327;51.328;12.324;2022-07-29T02:51:41;53130.19;;;-144.47;42.22
64076;BME280;50327;51.328;12.324;2022-07-29T02:54:10;53114.31;;;-144.47;42.45
64076;BME280;50327;51.328;12.324;2022-07-29T02:56:37;53146.09;;;-144.47;42.50
64076;BME280;50327;51.328;12.324;2022-07-29T02:59:08;53138.13;;;-144.47;42.46
64076;BME280;50327;51.328;12.324;2022-07-29T03:01:34;53116.28;;;-144.47;42.53
64076;BME280;50327;51.328;12.324;2022-07-29T03:04:03;53130.19;;;-144.47;42.54
64076;BME280;50327;51.328;12.324;2022-07-29T03:06:30;53150.06;;;-144.47;42.64
64076;BME280;50327;51.328;12.324;2022-07-29T03:08:57;53152.03;;;-144.47;42.75
64076;BME280;50327;51.328;12.324;2022-07-29T03:11:24;53134.16;;;-144.47;42.77
64076;BME280;50327;51.328;12.324;2022-07-29T03:13:50;53102.38;;;-144.47;42.79
64076;BME280;50327;51.328;12.324;2022-07-29T03:16:16;53148.06;;;-144.47;42.89
64076;BME280;50327;51.328;12.324;2022-07-29T03:18:43;53118.28;;;-144.47;42.89
64076;BME280;50327;51.328;12.324;2022-07-29T03:21:08;53124.22;;;-144.47;43.12
64076;BME280;50327;51.328;12.324;2022-07-29T03:23:34;53114.31;;;-144.47;43.18
64076;BME280;50327;51.328;12.324;2022-07-29T03:25:59;53140.13;;;-144.47;43.33
64076;BME280;50327;51.328;12.324;2022-07-29T03:28:25;53110.31;;;-144.47;43.29
64076;BME280;50327;51.328;12.324;2022-07-29T03:30:52;53152.03;;;-144.47;43.29
64076;BME280;50327;51.328;12.324;2022-07-29T03:33:18;53118.28;;;-144.47;43.50
64076;BME280;50327;51.328;12.324;2022-07-29T03:35:43;53094.44;;;-144.47;43.62
64076;BME280;50327;51.328;12.324;2022-07-29T03:38:09;53090.47;;;-144.47;43.60
64076;BME280;50327;51.328;12.324;2022-07-29T03:40:51;53173.88;;;-144.47;43.60
64076;BME280;50327;51.328;12.324;2022-07-29T03:43:18;53146.09;;;-144.47;43.68
64076;BME280;50327;51.328;12.324;2022-07-29T03:45:47;53150.06;;;-144.47;43.84
64076;BME280;50327;51.328;12.324;2022-07-29T03:48:16;53132.19;;;-144.47;43.86
64076;BME280;50327;51.328;12.324;2022-07-29T03:50:43;53128.22;;;-144.47;44.08
64076;BME280;50327;51.328;12.324;2022-07-29T03:53:09;53171.91;;;-144.47;44.03
64076;BME280;50327;51.328;12.324;2022-07-29T03:55:43;53158.00;;;-144.47;44.14
64076;BME280;50327;51.328;12.324;2022-07-29T03:58:10;53142.09;;;-144.47;44.05
64076;BME280;50327;51.328;12.324;2022-07-29T04:00:37;53124.22;;;-144.47;44.11
64076;BME280;50327;51.328;12.324;2022-07-29T04:03:04;53136.16;;;-144.47;43.91
64076;BME280;50327;51.328;12.324;2022-07-29T04:05:30;53128.22;;;-144.47;43.99
64076;BME280;50327;51.328;12.324;2022-07-29T04:07:55;53126.22;;;-144.47;43.94
64076;BME280;50327;51.328;12.324;2022-07-29T04:10:21;53140.13;;;-144.47;43.86
64076;BME280;50327;51.328;12.324;2022-07-29T04:12:48;53128.22;;;-144.47;43.88
64076;BME280;50327;51.328;12.324;2022-07-29T04:15:14;53122.25;;;-144.47;43.86
64076;BME280;50327;51.328;12.324;2022-07-29T04:17:39;53165.94;;;-144.47;43.81
64076;BME280;50327;51.328;12.324;2022-07-29T04:20:05;53167.94;;;-144.47;43.76
64076;BME280;50327;51.328;12.324;2022-07-29T04:22:30;53161.97;;;-144.47;43.96
64076;BME280;50327;51.328;12.324;2022-07-29T04:24:56;53100.41;;;-144.47;43.81
64076;BME280;50327;51.328;12.324;2022-07-29T04:27:21;53082.53;;;-144.47;43.76
64076;BME280;50327;51.328;12.324;2022-07-29T04:29:47;53138.13;;;-144.47;43.61
64076;BME280;50327;51.328;12.324;2022-07-29T04:32:12;53150.06;;;-144.47;43.69
64076;BME280;50327;51.328;12.324;2022-07-29T04:34:37;53126.22;;;-144.47;43.42
64076;BME280;50327;51.328;12.324;2022-07-29T04:37:03;53118.28;;;-144.47;43.56
64076;BME280;50327;51.328;12.324;2022-07-29T04:39:28;53142.09;;;-144.47;43.58
64076;BME280;50327;51.328;12.324;2022-07-29T04:41:54;53110.31;;;-144.47;43.50
64076;BME280;50327;51.328;12.324;2022-07-29T04:44:19;53138.13;;;-144.47;43.36
64076;BME280;50327;51.328;12.324;2022-07-29T04:46:45;53114.31;;;-144.47;43.35
64076;BME280;50327;51.328;12.324;2022-07-29T04:49:10;53114.31;;;-144.47;43.32
64076;BME280;50327;51.328;12.324;2022-07-29T04:51:35;53128.22;;;-144.47;43.48
64076;BME280;50327;51.328;12.324;2022-07-29T04:54:01;53086.50;;;-144.47;43.34
64076;BME280;50327;51.328;12.324;2022-07-29T04:56:27;53110.31;;;-144.47;43.38
64076;BME280;50327;51.328;12.324;2022-07-29T04:58:52;53114.31;;;-144.47;43.21
64076;BME280;50327;51.328;12.324;2022-07-29T05:01:18;53126.22;;;-144.47;43.10
64076;BME280;50327;51.328;12.324;2022-07-29T05:03:44;53108.34;;;-144.47;43.02
64076;BME280;50327;51.328;12.324;2022-07-29T05:06:10;53122.25;;;-144.47;43.13
64076;BME280;50327;51.328;12.324;2022-07-29T05:08:35;53126.22;;;-144.47;42.87
64076;BME280;50327;51.328;12.324;2022-07-29T05:11:01;53084.50;;;-144.47;42.87
64076;BME280;50327;51.328;12.324;2022-07-29T05:13:26;53136.16;;;-144.47;42.54
64076;BME280;50327;51.328;12.324;2022-07-29T05:15:52;53160.00;;;-144.47;42.66
64076;BME280;50327;51.328;12.324;2022-07-29T05:18:17;53094.44;;;-144.47;42.47
64076;BME280;50327;51.328;12.324;2022-07-29T05:20:42;53118.28;;;-144.47;42.50
64076;BME280;50327;51.328;12.324;2022-07-29T05:23:08;53142.09;;;-144.47;42.43
64076;BME280;50327;51.328;12.324;2022-07-29T05:25:34;53128.22;;;-144.47;42.28
64076;BME280;50327;51.328;12.324;2022-07-29T05:27:59;53102.38;;;-144.47;42.32
64076;BME280;50327;51.328;12.324;2022-07-29T05:30:28;53102.38;;;-144.47;42.22
64076;BME280;50327;51.328;12.324;2022-07-29T05:32:53;53100.41;;;-144.47;41.89
64076;BME280;50327;51.328;12.324;2022-07-29T05:35:18;53177.88;;;-144.47;42.04
64076;BME280;50327;51.328;12.324;2022-07-29T05:37:44;53120.25;;;-144.47;42.00
64076;BME280;50327;51.328;12.324;2022-07-29T05:40:09;53092.44;;;-144.47;41.95
64076;BME280;50327;51.328;12.324;2022-07-29T05:42:35;53104.38;;;-144.47;41.97
64076;BME280;50327;51.328;12.324;2022-07-29T05:45:01;53090.47;;;-144.47;42.05
64076;BME280;50327;51.328;12.324;2022-07-29T05:47:27;53100.41;;;-144.47;42.12
64076;BME280;50327;51.328;12.324;2022-07-29T05:49:52;53158.00;;;-144.47;42.19
64076;BME280;50327;51.328;12.324;2022-07-29T05:52:19;53116.28;;;-144.47;42.23
64076;BME280;50327;51.328;12.324;2022-07-29T05:54:44;53104.38;;;-144.47;42.07
64076;BME280;50327;51.328;12.324;2022-07-29T05:57:21;53128.22;;;-144.47;41.95
64076;BME280;50327;51.328;12.324;2022-07-29T05:59:47;53116.28;;;-144.47;41.90
64076;BME280;50327;51.328;12.324;2022-07-29T06:02:13;53122.25;;;-144.47;41.81
64076;BME280;50327;51.328;12.324;2022-07-29T06:04:38;53080.53;;;-144.47;41.70
64076;BME280;50327;51.328;12.324;2022-07-29T06:07:04;53104.38;;;-144.47;41.57
64076;BME280;50327;51.328;12.324;2022-07-29T06:09:29;53078.53;;;-144.47;41.43
64076;BME280;50327;51.328;12.324;2022-07-29T06:11:55;53122.25;;;-144.47;41.63
64076;BME280;50327;51.328;12.324;2022-07-29T06:14:21;53102.38;;;-144.47;41.32
64076;BME280;50327;51.328;12.324;2022-07-29T06:16:46;53078.53;;;-144.47;41.65
64076;BME280;50327;51.328;12.324;2022-07-29T06:19:12;53128.22;;;-144.47;41.48
64076;BME280;50327;51.328;12.324;2022-07-29T06:21:42;53142.09;;;-144.47;41.26
64076;BME280;50327;51.328;12.324;2022-07-29T06:24:07;53090.47;;;-144.47;41.28
64076;BME280;50327;51.328;12.324;2022-07-29T06:26:32;53114.31;;;-144.47;41.25
64076;BME280;50327;51.328;12.324;2022-07-29T06:28:58;53124.22;;;-144.47;41.14
64076;BME280;50327;51.328;12.324;2022-07-29T06:31:23;53108.34;;;-144.47;40.96
64076;BME280;50327;51.328;12.324;2022-07-29T06:33:49;53114.31;;;-144.47;40.99
64076;BME280;50327;51.328;12.324;2022-07-29T06:36:14;53110.31;;;-144.47;40.75
64076;BME280;50327;51.328;12.324;2022-07-29T06:38:40;53132.19;;;-144.47;40.63
64076;BME280;50327;51.328;12.324;2022-07-29T06:41:08;53116.28;;;-144.47;40.94
64076;BME280;50327;51.328;12.324;2022-07-29T06:43:39;53120.25;;;-144.47;40.85
64076;BME280;50327;51.328;12.324;2022-07-29T06:46:14;53116.28;;;-144.47;40.66
64076;BME280;50327;51.328;12.324;2022-07-29T06:48:41;53124.22;;;-144.47;40.60
64076;BME280;50327;51.328;12.324;2022-07-29T06:51:11;53106.34;;;-144.47;40.34
64076;BME280;50327;51.328;12.324;2022-07-29T06:53:37;53106.34;;;-144.47;39.70
64076;BME280;50327;51.328;12.324;2022-07-29T06:56:04;53064.66;;;-144.47;39.57
64076;BME280;50327;51.328;12.324;2022-07-29T06:58:30;53098.41;;;-144.47;39.47
64076;BME280;50327;51.328;12.324;2022-07-29T07:00:57;53070.59;;;-144.47;39.28
64076;BME280;50327;51.328;12.324;2022-07-29T07:03:23;53114.31;;;-144.47;39.17
64076;BME280;50327;51.328;12.324;2022-07-29T07:05:48;53086.50;;;-144.47;38.99
64076;BME280;50327;51.328;12.324;2022-07-29T07:08:14;53082.53;;;-144.47;39.07
64076;BME280;50327;51.328;12.324;2022-07-29T07:10:41;53048.75;;;-144.47;39.12
64076;BME280;50327;51.328;12.324;2022-07-29T07:13:07;53094.44;;;-144.47;38.69
64076;BME280;50327;51.328;12.324;2022-07-29T07:15:33;53076.56;;;-144.47;38.88
64076;BME280;50327;51.328;12.324;2022-07-29T07:17:59;53118.28;;;-144.47;39.06
64076;BME280;50327;51.328;12.324;2022-07-29T07:20:24;53112.31;;;-144.47;39.04
64076;BME280;50327;51.328;12.324;2022-07-29T07:22:50;53086.50;;;-144.47;38.97
64076;BME280;50327;51.328;12.324;2022-07-29T07:25:15;53092.44;;;-144.47;38.96
64076;BME280;50327;51.328;12.324;2022-07-29T07:27:43;53078.53;;;-144.47;38.93
64076;BME280;50327;51.328;12.324;2022-07-29T07:30:08;53096.41;;;-144.47;38.75
64076;BME280;50327;51.328;12.324;2022-07-29T07:32:34;53070.59;;;-144.47;38.67
64076;BME280;50327;51.328;12.324;2022-07-29T07:35:00;53076.56;;;-144.47;38.56
64076;BME280;50327;51.328;12.324;2022-07-29T07:37:26;53080.53;;;-144.47;38.64
64076;BME280;50327;51.328;12.324;2022-07-29T07:39:52;53098.41;;;-144.47;38.44
64076;BME280;50327;51.328;12.324;2022-07-29T07:42:18;53092.44;;;-144.47;38.18
64076;BME280;50327;51.328;12.324;2022-07-29T07:44:43;53062.66;;;-144.47;38.12
64076;BME280;50327;51.328;12.324;2022-07-29T07:47:11;53070.59;;;-144.47;38.17
64076;BME280;50327;51.328;12.324;2022-07-29T07:49:36;53022.94;;;-144.47;38.09
64076;BME280;50327;51.328;12.324;2022-07-29T07:52:02;53046.75;;;-144.47;37.97
64076;BME280;50327;51.328;12.324;2022-07-29T07:54:27;53090.47;;;-144.47;37.95
64076;BME280;50327;51.328;12.324;2022-07-29T07:56:53;53078.53;;;-144.47;38.04
64076;BME280;50327;51.328;12.324;2022-07-29T07:59:18;53086.50;;;-144.47;38.04
64076;BME280;50327;51.328;12.324;2022-07-29T08:01:44;53022.94;;;-144.47;37.94
64076;BME280;50327;51.328;12.324;2022-07-29T08:04:09;53078.53;;;-144.47;37.50
64076;BME280;50327;51.328;12.324;2022-07-29T08:06:34;53088.47;;;-144.47;37.70
64076;BME280;50327;51.328;12.324;2022-07-29T08:09:03;53078.53;;;-144.47;37.51
64076;BME280;50327;51.328;12.324;2022-07-29T08:11:28;53060.66;;;-144.47;37.32
64076;BME280;50327;51.328;12.324;2022-07-29T08:13:54;53052.72;;;-144.47;37.42
64076;BME280;50327;51.328;12.324;2022-07-29T08:16:20;53098.41;;;-144.47;37.03
64076;BME280;50327;51.328;12.324;2022-07-29T08:18:46;53074.56;;;-144.47;36.85
64076;BME280;50327;51.328;12.324;2022-07-29T08:21:12;53074.56;;;-144.47;36.71
64076;BME280;50327;51.328;12.324;2022-07-29T08:23:38;53046.75;;;-144.47;36.68
64076;BME280;50327;51.328;12.324;2022-07-29T08:26:05;53070.59;;;-144.47;36.31
64076;BME280;50327;51.328;12.324;2022-07-29T08:28:31;53058.69;;;-144.47;36.30
64076;BME280;50327;51.328;12.324;2022-07-29T08:30:56;53082.53;;;-144.47;35.81
64076;BME280;50327;51.328;12.324;2022-07-29T08:33:22;53016.97;;;-144.47;35.80
64076;BME280;50327;51.328;12.324;2022-07-29T08:35:47;53054.72;;;-144.47;35.51
64076;BME280;50327;51.328;12.324;2022-07-29T08:38:13;53020.94;;;-144.47;35.32
64076;BME280;50327;51.328;12.324;2022-07-29T08:40:39;53064.66;;;-144.47;35.17
64076;BME280;50327;51.328;12.324;2022-07-29T08:43:06;53042.78;;;-144.47;35.02
64076;BME280;50327;51.328;12.324;2022-07-29T08:45:42;53042.78;;;-144.47;35.06
64076;BME280;50327;51.328;12.324;2022-07-29T08:48:08;53082.53;;;-144.47;35.11
64076;BME280;50327;51.328;12.324;2022-07-29T08:50:35;53032.88;;;-144.47;34.98
64076;BME280;50327;51.328;12.324;2022-07-29T08:53:02;53054.72;;;-144.47;35.00
64076;BME280;50327;51.328;12.324;2022-07-29T08:55:28;53040.81;;;-144.47;35.00
64076;BME280;50327;51.328;12.324;2022-07-29T08:57:54;53042.78;;;-144.47;35.23
64076;BME280;50327;51.328;12.324;2022-07-29T09:00:21;53036.84;;;-144.47;34.85
64076;BME280;50327;51.328;12.324;2022-07-29T09:02:51;53060.66;;;-144.47;34.60
64076;BME280;50327;51.328;12.324;2022-07-29T09:05:21;53036.84;;;-144.47;34.19
64076;BME280;50327;51.328;12.324;2022-07-29T09:07:47;53050.75;;;-144.47;34.29
64076;BME280;50327;51.328;12.324;2022-07-29T09:10:13;53013.00;;;-144.47;34.44
64076;BME280;50327;51.328;12.324;2022-07-29T09:12:39;53046.75;;;-144.47;34.14
64076;BME280;50327;51.328;12.324;2022-07-29T09:15:05;53013.00;;;-144.47;34.04
64076;BME280;50327;51.328;12.324;2022-07-29T09:17:45;53046.75;;;-144.47;33.48
64076;BME280;50327;51.328;12.324;2022-07-29T09:20:13;53034.84;;;-144.47;33.23
64076;BME280;50327;51.328;12.324;2022-07-29T09:22:39;53015.00;;;-144.47;33.30
64076;BME280;50327;51.328;12.324;2022-07-29T09:25:05;53042.78;;;-144.47;33.23
64076;BME280;50327;51.328;12.324;2022-07-29T09:27:30;53052.72;;;-144.47;33.33
64076;BME280;50327;51.328;12.324;2022-07-29T09:30:09;53076.56;;;-144.47;33.41
64076;BME280;50327;51.328;12.324;2022-07-29T09:32:57;53028.88;;;-144.47;33.70
64076;BME280;50327;51.328;12.324;2022-07-29T09:35:24;52991.16;;;-144.47;33.17
64076;BME280;50327;51.328;12.324;2022-07-29T09:37:50;53034.84;;;-144.47;32.90
64076;BME280;50327;51.328;12.324;2022-07-29T09:40:22;52999.09;;;-144.47;33.00
64076;BME280;50327;51.328;12.324;2022-07-29T09:42:49;53022.94;;;-144.47;32.75
64076;BME280;50327;51.328;12.324;2022-07-29T09:45:32;53007.03;;;-144.47;32.50
64076;BME280;50327;51.328;12.324;2022-07-29T09:47:58;53007.03;;;-144.47;32.18
64076;BME280;50327;51.328;12.324;2022-07-29T09:50:35;52995.13;;;-144.47;32.45
64076;BME280;50327;51.328;12.324;2022-07-29T09:53:01;52997.09;;;-144.47;32.43
64076;BME280;50327;51.328;12.324;2022-07-29T09:55:27;53011.00;;;-144.47;32.40
64076;BME280;50327;51.328;12.324;2022-07-29T09:57:52;53030.88;;;-144.47;32.12
64076;BME280;50327;51.328;12.324;2022-07-29T10:00:19;53046.75;;;-144.47;31.89
64076;BME280;50327;51.328;12.324;2022-07-29T10:02:47;53011.00;;;-144.47;31.65
64076;BME280;50327;51.328;12.324;2022-07-29T10:05:21;53011.00;;;-144.47;31.73
64076;BME280;50327;51.328;12.324;2022-07-29T10:07:55;53003.06;;;-144.47;31.85
64076;BME280;50327;51.328;12.324;2022-07-29T10:12:51;53016.97;;;-144.47;31.67
64076;BME280;50327;51.328;12.324;2022-07-29T10:15:17;52989.16;;;-144.47;31.51
64076;BME280;50327;51.328;12.324;2022-07-29T10:17:43;52997.09;;;-144.47;31.61
64076;BME280;50327;51.328;12.324;2022-07-29T10:20:09;52947.47;;;-144.47;31.33
64076;BME280;50327;51.328;12.324;2022-07-29T10:22:35;52997.09;;;-144.47;30.92
64076;BME280;50327;51.328;12.324;2022-07-29T10:25:01;52977.25;;;-144.47;30.52
64076;BME280;50327;51.328;12.324;2022-07-29T10:27:27;53015.00;;;-144.47;30.14
64076;BME280;50327;51.328;12.324;2022-07-29T10:29:53;53009.03;;;-144.47;30.29
64076;BME280;50327;51.328;12.324;2022-07-29T10:43:51;52985.19;;;-144.47;30.07
64076;BME280;50327;51.328;12.324;2022-07-29T10:46:19;52961.34;;;-144.47;29.84
64076;BME280;50327;51.328;12.324;2022-07-29T10:54:45;52959.38;;;-144.47;29.90
64076;BME280;50327;51.328;12.324;2022-07-29T10:59:44;52987.19;;;-144.47;30.17
64076;BME280;50327;51.328;12.324;2022-07-29T11:07:22;53003.06;;;-144.47;29.80
64076;BME280;50327;51.328;12.324;2022-07-29T11:15:11;52949.44;;;-144.47;28.53
64076;BME280;50327;51.328;12.324;2022-07-29T11:20:43;52959.38;;;-144.47;28.70
64076;BME280;50327;51.328;12.324;2022-07-29T11:34:18;52947.47;;;-144.47;27.70
64076;BME280;50327;51.328;12.324;2022-07-29T11:39:32;52943.47;;;-144.47;27.48
64076;BME280;50327;51.328;12.324;2022-07-29T11:45:02;52953.41;;;-144.47;28.25
64076;BME280;50327;51.328;12.324;2022-07-29T11:47:31;52935.53;;;-144.47;28.04
64076;BME280;50327;51.328;12.324;2022-07-29T11:49:58;52925.59;;;-144.47;27.78
64076;BME280;50327;51.328;12.324;2022-07-29T11:52:32;52931.56;;;-144.47;27.46
64076;BME280;50327;51.328;12.324;2022-07-29T11:55:01;52915.69;;;-144.47;27.53
64076;BME280;50327;51.328;12.324;2022-07-29T11:57:28;52951.44;;;-144.47;27.58
64076;BME280;50327;51.328;12.324;2022-07-29T11:59:55;52943.47;;;-144.47;27.46
64076;BME280;50327;51.328;12.324;2022-07-29T12:02:20;52941.50;;;-144.47;27.21
64076;BME280;50327;51.328;12.324;2022-07-29T12:07:15;52979.22;;;-144.47;27.29
64076;BME280;50327;51.328;12.324;2022-07-29T12:09:49;52923.63;;;-144.47;27.38
64076;BME280;50327;51.328;12.324;2022-07-29T12:12:16;52931.56;;;-144.47;27.36
64076;BME280;50327;51.328;12.324;2022-07-29T12:14:42;52949.44;;;-144.47;27.38
64076;BME280;50327;51.328;12.324;2022-07-29T12:17:25;52943.47;;;-144.47;27.42
64076;BME280;50327;51.328;12.324;2022-07-29T12:19:52;52925.59;;;-144.47;27.33
64076;BME280;50327;51.328;12.324;2022-07-29T12:22:29;52953.41;;;-144.47;27.50
64076;BME280;50327;51.328;12.324;2022-07-29T12:24:59;52941.50;;;-144.47;27.53
64076;BME280;50327;51.328;12.324;2022-07-29T12:27:25;52971.28;;;-144.47;27.71
64076;BME280;50327;51.328;12.324;2022-07-29T12:29:59;52923.63;;;-144.47;27.54
64076;BME280;50327;51.328;12.324;2022-07-29T12:32:44;52927.59;;;-144.47;27.33
64076;BME280;50327;51.328;12.324;2022-07-29T12:35:16;52919.66;;;-144.47;27.22
64076;BME280;50327;51.328;12.324;2022-07-29T12:37:44;52933.56;;;-144.47;27.31
64076;BME280;50327;51.328;12.324;2022-07-29T12:40:12;52935.53;;;-144.47;27.31
64076;BME280;50327;51.328;12.324;2022-07-29T12:42:39;52959.38;;;-144.47;27.04
64076;BME280;50327;51.328;12.324;2022-07-29T12:45:05;52909.72;;;-144.47;26.86
64076;BME280;50327;51.328;12.324;2022-07-29T12:47:31;52923.63;;;-144.47;26.97
64076;BME280;50327;51.328;12.324;2022-07-29T12:50:12;52911.69;;;-144.47;27.07
64076;BME280;50327;51.328;12.324;2022-07-29T12:52:40;52907.72;;;-144.47;27.03
64076;BME280;50327;51.328;12.324;2022-07-29T12:55:13;52955.41;;;-144.47;26.95
64076;BME280;50327;51.328;12.324;2022-07-29T12:57:46;52911.69;;;-144.47;26.80
64076;BME280;50327;51.328;12.324;2022-07-29T13:00:12;52907.72;;;-144.47;26.65
64076;BME280;50327;51.328;12.324;2022-07-29T13:02:39;52915.69;;;-144.47;26.65
64076;BME280;50327;51.328;12.324;2022-07-29T13:05:07;52945.47;;;-144.47;26.56
64076;BME280;50327;51.328;12.324;2022-07-29T13:07:34;52917.66;;;-144.47;26.47
64076;BME280;50327;51.328;12.324;2022-07-29T13:10:17;52923.63;;;-144.47;26.26
64076;BME280;50327;51.328;12.324;2022-07-29T13:13:07;52911.69;;;-144.47;26.18
64076;BME280;50327;51.328;12.324;2022-07-29T13:15:35;52891.84;;;-144.47;26.36
64076;BME280;50327;51.328;12.324;2022-07-29T13:18:01;52905.75;;;-144.47;26.24
64076;BME280;50327;51.328;12.324;2022-07-29T13:20:28;52919.66;;;-144.47;26.24
64076;BME280;50327;51.328;12.324;2022-07-29T13:22:55;52919.66;;;-144.47;26.16
64076;BME280;50327;51.328;12.324;2022-07-29T13:25:31;52895.81;;;-144.47;26.21
64076;BME280;50327;51.328;12.324;2022-07-29T13:27:58;52911.69;;;-144.47;26.20
64076;BME280;50327;51.328;12.324;2022-07-29T13:30:24;52927.59;;;-144.47;26.11
64076;BME280;50327;51.328;12.324;2022-07-29T13:32:51;52915.69;;;-144.47;26.25
64076;BME280;50327;51.328;12.324;2022-07-29T13:35:18;52931.56;;;-144.47;26.17
64076;BME280;50327;51.328;12.324;2022-07-29T13:37:44;52889.84;;;-144.47;26.09
64076;BME280;50327;51.328;12.324;2022-07-29T13:40:13;52931.56;;;-144.47;25.94